Time;durP1;ratioP1;P1;durP2;ratioP2;P2;SDS_P1;SDS_P2;PMS_P1;PMS_P2;Temp;Humidity;BMP_temperature;BMP_pressure;BME280_temperature;BME280_humidity;BME280_pressure;Samples;Min_cycle;Max_cycle;Signal;HPM_P1;HPM_P2
2022/01/08 00:02:20;;;;;;;45.70;27.13;;;;;;;2.18;100.00;93050.97;5073858;28;20053;-84
2022/01/08 00:04:46;;;;;;;45.78;26.02;;;;;;;2.32;100.00;93048.75;5073748;28;20502;-85
2022/01/08 00:07:13;;;;;;;45.53;27.77;;;;;;;2.42;100.00;93051.09;5073717;28;20041;-85
2022/01/08 00:09:42;;;;;;;49.20;27.92;;;;;;;2.47;100.00;93048.84;5074232;28;20059;-85
2022/01/08 00:12:09;;;;;;;45.78;26.15;;;;;;;2.57;100.00;93046.13;5073600;28;20056;-85
2022/01/08 00:14:36;;;;;;;40.35;25.33;;;;;;;2.61;100.00;93047.38;5073669;28;20510;-85
2022/01/08 00:17:03;;;;;;;33.97;21.23;;;;;;;2.42;100.00;93043.47;5073598;28;20056;-85
2022/01/08 00:19:30;;;;;;;30.10;18.98;;;;;;;2.50;100.00;93038.41;5073736;28;20044;-85
2022/01/08 00:21:57;;;;;;;30.75;19.40;;;;;;;2.53;100.00;93040.59;5073936;28;20057;-86
2022/01/08 00:24:24;;;;;;;26.90;16.70;;;;;;;2.46;100.00;93037.91;5073445;28;20139;-85
2022/01/08 00:26:52;;;;;;;21.80;14.00;;;;;;;2.44;100.00;93039.81;5073267;28;20053;-85
2022/01/08 00:29:19;;;;;;;22.98;14.63;;;;;;;2.32;100.00;93034.31;5073235;28;20063;-85
2022/01/08 00:31:45;;;;;;;18.52;12.85;;;;;;;2.25;100.00;93030.84;5073461;28;20048;-86
2022/01/08 00:34:12;;;;;;;19.83;12.55;;;;;;;1.93;100.00;93030.78;5073467;28;20052;-85
2022/01/08 00:36:39;;;;;;;18.30;11.57;;;;;;;2.04;100.00;93023.78;5073199;28;20056;-85
2022/01/08 00:39:06;;;;;;;18.08;13.13;;;;;;;1.99;100.00;93031.88;5073213;28;20098;-85
2022/01/08 00:41:33;;;;;;;18.73;12.43;;;;;;;2.03;100.00;93028.06;5073054;28;20553;-85
2022/01/08 00:44:01;;;;;;;18.92;12.80;;;;;;;1.89;100.00;93001.63;5073342;28;20048;-85
2022/01/08 00:46:28;;;;;;;18.77;11.93;;;;;;;2.03;100.00;93019.69;5073055;28;20507;-86
2022/01/08 00:48:55;;;;;;;19.23;12.02;;;;;;;2.11;100.00;93027.25;5073100;28;20355;-85
2022/01/08 00:51:22;;;;;;;17.60;11.68;;;;;;;2.25;100.00;93028.31;5072461;28;20044;-86
2022/01/08 00:53:48;;;;;;;16.08;10.82;;;;;;;2.33;100.00;93028.31;5072826;28;20475;-86
2022/01/08 00:56:15;;;;;;;14.55;10.07;;;;;;;2.34;100.00;93024.00;5072878;28;20064;-86
2022/01/08 00:58:42;;;;;;;19.27;12.27;;;;;;;2.34;100.00;93013.88;5072840;28;20041;-85
2022/01/08 01:01:11;;;;;;;17.17;11.80;;;;;;;2.31;100.00;93020.06;5072944;28;20087;-85
2022/01/08 01:03:38;;;;;;;15.70;11.30;;;;;;;2.30;100.00;93026.09;5072909;28;20040;-85
2022/01/08 01:06:06;;;;;;;18.33;11.40;;;;;;;2.30;100.00;93018.47;5072730;28;20044;-85
2022/01/08 01:08:33;;;;;;;16.23;10.82;;;;;;;2.30;100.00;93017.72;5072508;28;20097;-85
2022/01/08 01:11:00;;;;;;;12.40;9.30;;;;;;;2.12;100.00;92995.88;5072787;28;20545;-85
2022/01/08 01:13:27;;;;;;;13.45;9.90;;;;;;;2.26;100.00;93014.69;5072564;28;20045;-86
2022/01/08 01:15:54;;;;;;;11.73;8.35;;;;;;;2.22;100.00;93016.00;5072459;28;20048;-85
2022/01/08 01:18:22;;;;;;;12.80;8.43;;;;;;;2.20;100.00;93012.81;5072348;28;20052;-85
2022/01/08 01:20:50;;;;;;;12.82;8.65;;;;;;;2.14;100.00;93004.91;5072394;28;20097;-84
2022/01/08 01:23:20;;;;;;;12.93;9.18;;;;;;;2.16;100.00;93011.56;5072327;28;20057;-83
2022/01/08 01:25:51;;;;;;;13.57;9.00;;;;;;;2.07;100.00;92998.09;5072206;28;20139;-86
2022/01/08 01:28:38;;;;;;;14.50;8.80;;;;;;;1.85;100.00;92988.50;5072425;28;20070;-85
2022/01/08 01:42:34;;;;;;;16.35;10.80;;;;;;;1.81;100.00;92987.25;5072062;28;20075;-85
2022/01/08 01:47:45;;;;;;;15.10;9.65;;;;;;;1.79;100.00;92979.03;5071920;28;20047;-85
2022/01/08 01:50:13;;;;;;;14.65;9.70;;;;;;;1.81;100.00;92977.13;5071639;28;20411;-85
2022/01/08 01:52:40;;;;;;;12.32;8.50;;;;;;;1.82;100.00;92976.19;5071990;28;20048;-85
2022/01/08 01:55:08;;;;;;;12.18;8.63;;;;;;;1.81;100.00;92963.69;5071919;28;20045;-85
2022/01/08 01:57:35;;;;;;;12.75;8.45;;;;;;;1.43;100.00;92903.47;5071673;28;20040;-85
2022/01/08 02:00:04;;;;;;;11.00;8.27;;;;;;;1.70;100.00;92950.41;5071709;28;20094;-85
2022/01/08 02:02:31;;;;;;;12.43;8.90;;;;;;;1.70;100.00;92955.47;5071566;28;20109;-85
2022/01/08 02:04:58;;;;;;;10.80;7.63;;;;;;;1.57;100.00;92933.16;5071749;28;20528;-85
2022/01/08 02:07:28;;;;;;;11.10;7.97;;;;;;;1.69;100.00;92945.50;5071668;28;20044;-85
2022/01/08 02:09:56;;;;;;;11.07;7.60;;;;;;;1.55;100.00;92931.75;5071422;28;20056;-85
2022/01/08 02:12:23;;;;;;;11.02;7.25;;;;;;;1.50;100.00;92941.56;5071484;28;20143;-85
2022/01/08 02:14:50;;;;;;;11.43;8.05;;;;;;;1.50;100.00;92942.38;5071282;28;20094;-85
2022/01/08 02:17:18;;;;;;;11.55;7.78;;;;;;;1.44;100.00;92938.72;5070929;28;20056;-85
2022/01/08 02:19:45;;;;;;;12.02;8.23;;;;;;;1.46;100.00;92936.03;5071442;28;20040;-85
2022/01/08 02:22:16;;;;;;;11.65;8.75;;;;;;;1.42;100.00;92930.50;5071440;28;20102;-85
2022/01/08 02:24:44;;;;;;;23.77;12.50;;;;;;;1.38;100.00;92929.25;5071615;28;20091;-85
2022/01/08 02:27:12;;;;;;;22.65;11.88;;;;;;;1.37;100.00;92935.25;5071099;28;20053;-86
2022/01/08 02:29:39;;;;;;;17.30;10.98;;;;;;;1.05;100.00;92889.59;5071003;28;20048;-85
2022/01/08 02:32:08;;;;;;;14.88;10.15;;;;;;;1.27;100.00;92929.56;5070974;28;20052;-85
2022/01/08 02:34:37;;;;;;;12.60;8.60;;;;;;;1.18;100.00;92923.72;5070992;28;20063;-85
2022/01/08 02:37:04;;;;;;;14.43;9.77;;;;;;;1.06;100.00;92900.47;5071141;28;20190;-85
2022/01/08 02:39:38;;;;;;;17.98;11.23;;;;;;;1.17;100.00;92912.03;5071010;28;20486;-85
2022/01/08 02:42:06;;;;;;;18.60;13.32;;;;;;;1.19;100.00;92915.19;5070913;28;20406;-85
2022/01/08 02:44:34;;;;;;;15.73;10.05;;;;;;;1.33;100.00;92917.06;5070934;28;20115;-85
2022/01/08 02:47:01;;;;;;;12.38;8.57;;;;;;;1.32;100.00;92910.44;5070862;28;20048;-86
2022/01/08 02:49:28;;;;;;;13.02;8.23;;;;;;;1.40;100.00;92899.53;5070985;28;20101;-85
2022/01/08 02:51:55;;;;;;;31.00;18.70;;;;;;;1.48;100.00;92913.88;5070836;28;20059;-85
2022/01/08 02:54:22;;;;;;;28.45;17.88;;;;;;;1.56;100.00;92913.88;5070880;28;20094;-85
2022/01/08 02:56:50;;;;;;;20.52;13.52;;;;;;;1.60;100.00;92909.28;5070721;28;20106;-85
2022/01/08 02:59:19;;;;;;;22.58;13.80;;;;;;;1.62;100.00;92911.66;5070749;28;20491;-85
2022/01/08 03:01:46;;;;;;;14.45;9.85;;;;;;;1.64;100.00;92904.66;5070924;28;20056;-85
2022/01/08 03:04:14;;;;;;;11.18;8.27;;;;;;;1.51;100.00;92903.44;5070848;28;20114;-85
2022/01/08 03:06:41;;;;;;;13.35;8.85;;;;;;;1.64;100.00;92918.13;5070688;28;20052;-85
2022/01/08 03:09:08;;;;;;;11.27;7.70;;;;;;;1.66;100.00;92908.63;5070547;28;20059;-85
2022/01/08 03:11:35;;;;;;;12.70;7.20;;;;;;;1.58;100.00;92909.44;5070522;28;20067;-85
2022/01/08 03:14:03;;;;;;;11.27;7.45;;;;;;;1.50;100.00;92906.13;5076174;28;20048;-85
2022/01/08 03:16:30;;;;;;;12.27;7.75;;;;;;;1.54;100.00;92913.25;5077225;28;20445;-86
2022/01/08 03:18:57;;;;;;;12.30;7.28;;;;;;;1.62;100.00;92909.13;5077388;28;20055;-85
2022/01/08 03:21:24;;;;;;;13.25;8.00;;;;;;;1.65;100.00;92912.13;5077631;28;20098;-85
2022/01/08 03:23:55;;;;;;;15.63;9.20;;;;;;;1.77;100.00;92916.81;5077107;28;20057;-85
2022/01/08 03:26:25;;;;;;;23.55;13.02;;;;;;;1.08;100.00;92799.16;5077384;28;20053;-85
2022/01/08 03:28:53;;;;;;;14.73;9.98;;;;;;;1.86;100.00;92909.03;5077184;28;20414;-85
2022/01/08 03:31:22;;;;;;;16.85;10.05;;;;;;;1.85;100.00;92904.94;5077149;28;20414;-85
2022/01/08 03:33:51;;;;;;;17.13;10.73;;;;;;;1.90;100.00;92888.47;5077231;28;20056;-85
2022/01/08 03:36:19;;;;;;;14.68;8.85;;;;;;;1.87;100.00;92882.75;5077008;28;20052;-85
2022/01/08 03:38:46;;;;;;;15.52;9.32;;;;;;;1.93;100.00;92890.66;5077066;28;20048;-85
2022/01/08 03:41:13;;;;;;;19.02;10.98;;;;;;;1.95;100.00;92878.63;5076990;28;20052;-86
2022/01/08 03:43:40;;;;;;;21.50;12.32;;;;;;;1.93;100.00;92877.97;5076970;28;20048;-85
2022/01/08 03:46:07;;;;;;;19.00;12.88;;;;;;;1.94;100.00;92877.06;5077074;28;20060;-85
2022/01/08 03:48:44;;;;;;;19.80;13.30;;;;;;;1.92;100.00;92878.94;5077116;28;20044;-85
2022/01/08 03:51:12;;;;;;;26.63;14.93;;;;;;;1.87;100.00;92884.50;5077169;28;20052;-85
2022/01/08 03:53:39;;;;;;;39.30;24.85;;;;;;;1.80;100.00;92876.78;5077017;28;20048;-85
2022/01/08 03:56:06;;;;;;;42.90;25.30;;;;;;;1.77;100.00;92889.78;5077167;28;20114;-85
2022/01/08 03:58:34;;;;;;;35.42;22.98;;;;;;;1.75;100.00;92888.34;5077090;28;20056;-85
2022/01/08 04:01:01;;;;;;;33.03;20.67;;;;;;;1.75;100.00;92884.06;5077543;28;20049;-85
2022/01/08 04:03:28;;;;;;;31.63;20.17;;;;;;;1.71;100.00;92882.84;5076816;28;20139;-85
2022/01/08 04:05:56;;;;;;;32.38;19.50;;;;;;;1.45;100.00;92841.59;5076848;28;20410;-85
2022/01/08 04:08:23;;;;;;;31.33;18.88;;;;;;;1.62;100.00;92876.22;5076802;28;20514;-85
2022/01/08 04:10:50;;;;;;;32.70;18.52;;;;;;;1.48;100.00;92870.06;5076900;28;20056;-86
2022/01/08 04:13:21;;;;;;;29.95;18.80;;;;;;;1.54;100.00;92887.94;5076663;28;20059;-86
2022/01/08 04:15:51;;;;;;;32.20;19.83;;;;;;;1.43;100.00;92868.03;5076629;28;20057;-86
2022/01/08 04:18:18;;;;;;;27.02;18.00;;;;;;;1.56;100.00;92893.63;5076884;28;20044;-84
2022/01/08 04:21:06;;;;;;;33.50;21.27;;;;;;;1.59;100.00;92895.03;5076659;28;20517;-84
2022/01/08 04:23:34;;;;;;;28.38;17.92;;;;;;;1.63;100.00;92890.44;5076643;28;20134;-86
2022/01/08 04:26:01;;;;;;;25.98;17.08;;;;;;;1.56;100.00;92877.63;5072794;28;20049;-85
2022/01/08 04:28:28;;;;;;;28.80;17.88;;;;;;;1.59;100.00;92892.50;5073374;28;20052;-85
2022/01/08 04:30:55;;;;;;;25.70;17.65;;;;;;;1.60;100.00;92889.03;5073334;28;20563;-85
2022/01/08 04:33:22;;;;;;;28.60;17.40;;;;;;;1.64;100.00;92897.06;5073397;28;20090;-85
2022/01/08 04:35:49;;;;;;;26.27;16.65;;;;;;;1.66;100.00;92887.59;5073251;28;20056;-85
2022/01/08 04:38:16;;;;;;;25.88;16.52;;;;;;;1.69;100.00;92894.84;5073401;28;20052;-85
2022/01/08 04:40:44;;;;;;;23.38;14.93;;;;;;;1.64;100.00;92894.53;5073161;28;20102;-85
2022/01/08 04:43:10;;;;;;;21.73;15.05;;;;;;;1.68;100.00;92891.53;5073138;28;20048;-86
2022/01/08 04:45:37;;;;;;;24.92;15.05;;;;;;;1.60;100.00;92879.69;5073148;28;20045;-85
2022/01/08 04:48:06;;;;;;;22.02;14.30;;;;;;;1.68;100.00;92894.06;5073348;28;20059;-85
2022/01/08 04:50:33;;;;;;;21.48;14.63;;;;;;;1.70;100.00;92892.16;5073105;28;20052;-85
2022/01/08 04:53:00;;;;;;;21.23;13.65;;;;;;;1.69;100.00;92892.31;5072772;28;20041;-83
2022/01/08 04:55:27;;;;;;;21.73;14.23;;;;;;;1.64;100.00;92885.22;5072286;28;20060;-85
2022/01/08 04:57:55;;;;;;;24.73;15.55;;;;;;;1.67;100.00;92886.63;5072557;28;20062;-85
2022/01/08 05:00:22;;;;;;;22.63;15.52;;;;;;;1.67;100.00;92889.16;5069796;28;20074;-85
2022/01/08 05:02:50;;;;;;;26.77;15.10;;;;;;;1.68;100.00;92895.81;5072933;28;20403;-85
2022/01/08 05:05:17;;;;;;;23.52;14.30;;;;;;;1.68;100.00;92895.81;5071673;28;20048;-86
2022/01/08 05:07:45;;;;;;;23.15;14.38;;;;;;;1.53;100.00;92881.28;5069531;28;20044;-85
2022/01/08 05:10:13;;;;;;;22.60;14.43;;;;;;;1.64;100.00;92892.81;5072298;28;20063;-86
2022/01/08 05:12:40;;;;;;;24.23;14.95;;;;;;;1.62;100.00;92896.47;5070703;28;20051;-83
2022/01/08 05:15:09;;;;;;;23.05;14.77;;;;;;;1.52;100.00;92894.88;5072446;28;20048;-83
2022/01/08 05:17:38;;;;;;;21.30;14.10;;;;;;;1.39;100.00;92877.66;5071777;28;20048;-83
2022/01/08 05:20:07;;;;;;;22.60;16.10;;;;;;;1.32;100.00;92879.28;5072431;28;20143;-83
2022/01/08 05:22:49;;;;;;;25.80;15.82;;;;;;;1.38;100.00;92883.69;5072253;28;20388;-84
2022/01/08 05:25:16;;;;;;;25.92;16.92;;;;;;;1.41;100.00;92892.69;5072447;28;20392;-84
2022/01/08 05:27:43;;;;;;;27.13;17.85;;;;;;;1.44;100.00;92888.09;5072509;28;20052;-84
2022/01/08 05:30:12;;;;;;;30.98;18.88;;;;;;;1.32;100.00;92864.88;5072326;28;20056;-84
2022/01/08 05:32:39;;;;;;;121.03;60.78;;;;;;;1.47;100.00;92894.59;5072156;28;20101;-84
2022/01/08 05:35:06;;;;;;;44.22;26.33;;;;;;;1.42;100.00;92884.94;5072115;28;20056;-84
2022/01/08 05:37:33;;;;;;;31.33;20.50;;;;;;;1.33;100.00;92884.19;5072144;28;20446;-84
2022/01/08 05:40:00;;;;;;;28.90;18.00;;;;;;;1.24;100.00;92867.44;5072141;28;20068;-84
2022/01/08 05:42:27;;;;;;;33.05;21.25;;;;;;;1.22;100.00;92863.47;5072196;28;20048;-84
2022/01/08 05:44:54;;;;;;;30.17;20.35;;;;;;;1.31;100.00;92878.47;5071929;28;20487;-84
2022/01/08 05:47:23;;;;;;;25.75;17.38;;;;;;;1.28;100.00;92875.47;5071792;28;20101;-85
2022/01/08 05:49:50;;;;;;;23.90;15.13;;;;;;;1.26;100.00;92880.72;5071728;28;20049;-85
2022/01/08 05:52:17;;;;;;;27.30;17.88;;;;;;;1.19;100.00;92860.31;5071647;28;20499;-84
2022/01/08 05:54:43;;;;;;;29.20;18.65;;;;;;;1.32;100.00;92880.06;5071926;28;20465;-85
2022/01/08 05:57:10;;;;;;;32.30;20.15;;;;;;;1.34;100.00;92884.94;5071204;28;20082;-85
2022/01/08 05:59:37;;;;;;;29.38;20.42;;;;;;;1.35;100.00;92885.75;5071633;28;20094;-84
2022/01/08 06:02:05;;;;;;;32.55;20.00;;;;;;;1.38;100.00;92878.63;5071384;28;20049;-85
2022/01/08 06:04:33;;;;;;;30.13;18.45;;;;;;;1.41;100.00;92883.38;5071478;28;20564;-85
2022/01/08 06:07:00;;;;;;;28.33;18.05;;;;;;;1.44;100.00;92884.78;5071497;28;20098;-84
2022/01/08 06:09:27;;;;;;;24.58;16.00;;;;;;;1.43;100.00;92875.63;5071538;28;20048;-85
2022/01/08 06:11:54;;;;;;;24.63;15.85;;;;;;;1.22;100.00;92838.97;5071420;28;20052;-85
2022/01/08 06:14:21;;;;;;;27.45;16.23;;;;;;;1.54;100.00;92877.00;5071366;28;20090;-85
2022/01/08 06:16:48;;;;;;;30.67;19.08;;;;;;;1.55;100.00;92866.72;5071056;28;20059;-85
2022/01/08 06:19:16;;;;;;;45.80;25.50;;;;;;;1.52;100.00;92871.34;5071307;28;20060;-85
2022/01/08 06:21:44;;;;;;;52.60;29.77;;;;;;;1.62;100.00;92878.75;5071489;28;20420;-85
2022/01/08 06:24:11;;;;;;;55.08;31.38;;;;;;;1.64;100.00;92879.34;5071238;28;20518;-85
2022/01/08 06:26:38;;;;;;;55.30;31.67;;;;;;;1.58;100.00;92856.25;5071225;28;20048;-85
2022/01/08 06:29:05;;;;;;;48.80;29.75;;;;;;;1.71;100.00;92873.47;5071249;28;20052;-85
2022/01/08 06:31:31;;;;;;;39.28;23.95;;;;;;;1.76;100.00;92879.81;5070806;28;20049;-85
2022/01/08 06:33:58;;;;;;;35.10;22.00;;;;;;;1.78;100.00;92873.63;5071359;28;20048;-85
2022/01/08 06:36:25;;;;;;;29.85;18.77;;;;;;;1.73;100.00;92861.44;5071190;28;20044;-85
2022/01/08 06:38:54;;;;;;;25.55;15.85;;;;;;;1.83;100.00;92865.53;5071058;28;20101;-85
2022/01/08 06:41:21;;;;;;;25.70;16.98;;;;;;;1.84;100.00;92867.09;5071101;28;20052;-85
2022/01/08 06:43:48;;;;;;;22.95;14.68;;;;;;;1.81;100.00;92852.25;5070839;28;20552;-85
2022/01/08 06:46:15;;;;;;;25.73;17.00;;;;;;;1.85;100.00;92856.03;5071416;28;20407;-85
2022/01/08 06:48:42;;;;;;;30.10;19.25;;;;;;;1.96;100.00;92867.53;5070417;28;20565;-85
2022/01/08 06:51:09;;;;;;;36.85;22.83;;;;;;;1.98;100.00;92868.16;5070839;28;20040;-85
2022/01/08 06:53:36;;;;;;;46.13;26.77;;;;;;;2.04;100.00;92870.00;5070920;28;20044;-83
2022/01/08 06:56:05;;;;;;;52.15;30.52;;;;;;;2.08;100.00;92878.09;5070806;28;20057;-83
2022/01/08 06:58:32;;;;;;;64.38;35.67;;;;;;;2.11;100.00;92873.47;5070677;28;20495;-84
2022/01/08 07:00:59;;;;;;;59.53;34.20;;;;;;;2.09;100.00;92867.78;5069458;28;20048;-84
2022/01/08 07:03:26;;;;;;;58.53;34.00;;;;;;;2.07;100.00;92863.81;5070738;28;20491;-84
2022/01/08 07:05:53;;;;;;;60.22;35.05;;;;;;;2.19;100.00;92877.72;5070019;28;20101;-84
2022/01/08 07:08:19;;;;;;;62.83;36.38;;;;;;;2.09;100.00;92860.19;5070695;28;20040;-84
2022/01/08 07:10:46;;;;;;;64.72;35.72;;;;;;;2.23;100.00;92881.47;5070559;28;20498;-84
2022/01/08 07:13:14;;;;;;;57.00;35.42;;;;;;;2.25;100.00;92882.13;5070521;28;20453;-84
2022/01/08 07:15:41;;;;;;;61.97;40.08;;;;;;;2.32;100.00;92879.69;5070509;28;20048;-84
2022/01/08 07:18:08;;;;;;;54.08;34.00;;;;;;;2.34;100.00;92885.41;5070691;28;20056;-85
2022/01/08 07:20:35;;;;;;;56.25;35.17;;;;;;;2.37;100.00;92879.97;5070590;28;20052;-85
2022/01/08 07:23:02;;;;;;;64.78;38.42;;;;;;;2.37;100.00;92874.91;5070558;28;20055;-85
2022/01/08 07:25:29;;;;;;;66.60;39.55;;;;;;;2.44;100.00;92885.19;5070399;28;20044;-85
2022/01/08 07:27:55;;;;;;;58.53;35.50;;;;;;;2.48;100.00;92870.41;5070795;28;20122;-85
2022/01/08 07:30:24;;;;;;;54.20;33.85;;;;;;;2.37;100.00;92854.63;5070541;28;20073;-85
2022/01/08 07:32:53;;;;;;;67.45;39.72;;;;;;;2.58;100.00;92876.06;5070352;28;20078;-85
2022/01/08 07:35:23;;;;;;;66.57;40.95;;;;;;;2.67;100.00;92876.78;5070419;28;20041;-85
2022/01/08 07:37:51;;;;;;;79.20;44.88;;;;;;;2.70;100.00;92876.47;5070374;28;20053;-85
2022/01/08 07:40:19;;;;;;;72.38;40.28;;;;;;;2.78;100.00;92883.22;5070245;28;20053;-85
2022/01/08 07:42:45;;;;;;;76.78;41.35;;;;;;;2.65;100.00;92856.66;5070299;28;20087;-85
2022/01/08 07:45:13;;;;;;;72.32;40.85;;;;;;;2.80;100.00;92879.56;5070498;28;20110;-85
2022/01/08 07:47:41;;;;;;;84.72;44.90;;;;;;;2.91;100.00;92880.09;5070259;28;20540;-85
2022/01/08 07:50:09;;;;;;;77.68;45.42;;;;;;;2.94;100.00;92875.50;5070318;28;20055;-86
2022/01/08 07:52:36;;;;;;;71.93;41.83;;;;;;;3.01;100.00;92878.13;5070167;28;20059;-86
2022/01/08 07:55:03;;;;;;;61.88;37.08;;;;;;;3.04;100.00;92875.25;5069964;28;20102;-85
2022/01/08 07:57:30;;;;;;;36.03;23.98;;;;;;;3.12;100.00;92876.94;5070363;28;20048;-86
2022/01/08 07:59:56;;;;;;;30.52;18.88;;;;;;;3.22;100.00;92876.69;5072610;28;20048;-86
2022/01/08 08:02:23;;;;;;;25.52;15.82;;;;;;;3.25;100.00;92875.56;5073888;28;20064;-85
2022/01/08 08:04:52;;;;;;;24.33;16.67;;;;;;;3.15;100.00;92850.44;5073904;28;20059;-86
2022/01/08 08:07:28;;;;;;;26.25;16.85;;;;;;;3.40;100.00;92878.09;5073748;28;20052;-86
2022/01/08 08:09:54;;;;;;;;;;;;;;;3.52;100.00;92881.00;5074591;28;20057;-86
2022/01/08 08:12:22;;;;;;;24.23;16.23;;;;;;;3.57;100.00;92874.44;5073940;28;19920;-85
2022/01/08 08:14:49;;;;;;;28.25;16.00;;;;;;;3.72;100.00;92868.59;5073781;28;20072;-85
2022/01/08 08:17:16;;;;;;;130.23;69.57;;;;;;;3.86;100.00;92874.63;5073715;28;20520;-86
2022/01/08 08:19:42;;;;;;;46.60;27.80;;;;;;;3.93;100.00;92864.53;5073530;28;20103;-86
2022/01/08 08:22:13;;;;;;;31.90;18.90;;;;;;;4.06;100.00;92858.81;5073884;28;20086;-86
2022/01/08 08:24:40;;;;;;;29.67;17.75;;;;;;;4.23;100.00;92861.94;5071821;28;20049;-86
2022/01/08 08:27:07;;;;;;;16.70;11.40;;;;;;;4.36;100.00;92858.75;5073766;28;20050;-86
2022/01/08 08:29:35;;;;;;;19.23;12.13;;;;;;;4.20;100.00;92819.06;5073488;28;20052;-86
2022/01/08 08:32:02;;;;;;;21.83;13.38;;;;;;;4.35;100.00;92836.84;5073568;28;20098;-86
2022/01/08 08:34:29;;;;;;;24.77;14.13;;;;;;;4.55;100.00;92855.59;5073373;28;20048;-86
2022/01/08 08:36:56;;;;;;;31.38;19.48;;;;;;;4.47;100.00;92834.59;5073366;28;20048;-86
2022/01/08 08:39:25;;;;;;;27.05;15.68;;;;;;;4.18;100.00;92837.06;5073356;28;20133;-85
2022/01/08 08:41:52;;;;;;;26.60;15.05;;;;;;;4.07;100.00;92832.44;5073299;28;20097;-86
2022/01/08 08:44:18;;;;;;;38.13;17.65;;;;;;;4.16;100.00;92845.84;5073174;28;20048;-85
2022/01/08 08:46:45;;;;;;;24.67;14.77;;;;;;;3.85;100.00;92845.88;5073235;28;20060;-85
2022/01/08 08:49:12;;;;;;;30.90;17.90;;;;;;;3.71;100.00;92827.13;5073674;28;20056;-86
2022/01/08 08:51:39;;;;;;;32.20;17.65;;;;;;;3.46;100.00;92829.16;5073200;28;20131;-85
2022/01/08 08:54:06;;;;;;;30.23;15.80;;;;;;;3.58;100.00;92832.84;5073663;28;20068;-86
2022/01/08 08:56:34;;;;;;;31.25;15.07;;;;;;;3.33;100.00;92833.09;5073143;28;20411;-85
2022/01/08 08:59:01;;;;;;;27.80;17.67;;;;;;;3.72;100.00;92828.72;5072945;28;20067;-86
2022/01/08 09:01:28;;;;;;;26.70;14.68;;;;;;;4.00;100.00;92835.72;5072376;28;20048;-86
2022/01/08 09:03:55;;;;;;;26.98;13.20;;;;;;;3.92;100.00;92828.16;5073517;28;20045;-86
2022/01/08 09:06:22;;;;;;;17.02;10.80;;;;;;;3.68;100.00;92829.25;5072777;28;20049;-86
2022/01/08 09:08:49;;;;;;;23.58;12.15;;;;;;;3.95;100.00;92817.66;5073195;28;20434;-86
2022/01/08 09:11:16;;;;;;;19.33;11.63;;;;;;;4.10;100.00;92793.94;5071990;28;20098;-86
2022/01/08 09:13:44;;;;;;;17.30;10.20;;;;;;;3.97;100.00;92812.38;5072413;28;20499;-86
2022/01/08 09:16:12;;;;;;;17.30;10.60;;;;;;;4.01;100.00;92800.91;5072569;28;20052;-86
2022/01/08 09:18:41;;;;;;;27.88;13.95;;;;;;;4.30;100.00;92809.41;5072779;28;20176;-85
2022/01/08 09:21:08;;;;;;;18.98;12.10;;;;;;;4.45;100.00;92798.38;5073076;28;20193;-85
2022/01/08 09:23:37;;;;;;;18.60;11.63;;;;;;;4.50;100.00;92804.50;5072495;28;20501;-85
2022/01/08 09:26:05;;;;;;;20.45;12.68;;;;;;;4.54;100.00;92799.84;5072529;28;20044;-85
2022/01/08 09:28:32;;;;;;;22.60;12.70;;;;;;;4.51;100.00;92790.81;5072321;28;20048;-85
2022/01/08 09:31:01;;;;;;;20.38;11.40;;;;;;;4.36;100.00;92777.38;5072343;28;20098;-86
2022/01/08 09:33:28;;;;;;;18.05;11.73;;;;;;;4.26;100.00;92781.00;5072325;28;20052;-85
2022/01/08 09:35:55;;;;;;;16.67;10.23;;;;;;;4.00;100.00;92769.63;5072231;28;20044;-85
2022/01/08 09:38:22;;;;;;;17.83;10.40;;;;;;;4.09;100.00;92764.41;5072229;28;20048;-85
2022/01/08 09:40:49;;;;;;;18.02;10.93;;;;;;;4.21;100.00;92765.50;5071834;28;20064;-85
2022/01/08 09:43:17;;;;;;;17.20;11.18;;;;;;;4.17;100.00;92760.97;5071641;28;20053;-86
2022/01/08 09:45:44;;;;;;;14.63;10.18;;;;;;;4.44;100.00;92748.50;5072209;28;20041;-85
2022/01/08 09:48:13;;;;;;;13.93;10.40;;;;;;;4.73;100.00;92757.72;5072105;28;20052;-86
2022/01/08 09:50:41;;;;;;;15.50;10.93;;;;;;;4.90;100.00;92748.03;5071899;28;20064;-86
2022/01/08 09:53:08;;;;;;;19.05;12.00;;;;;;;5.20;100.00;92747.06;5071646;28;20060;-86
2022/01/08 09:55:35;;;;;;;21.73;12.25;;;;;;;5.51;100.00;92745.81;5071666;28;20483;-86
2022/01/08 09:58:02;;;;;;;15.88;11.00;;;;;;;5.59;100.00;92735.47;5071801;28;20054;-86
2022/01/08 10:00:31;;;;;;;16.27;8.93;;;;;;;5.84;100.00;92765.53;5071601;28;20182;-86
2022/01/08 10:05:54;;;;;;;28.30;19.35;;;;;;;6.32;100.00;92748.63;5088272;27;20386;-84
2022/01/08 10:08:24;;;;;;;9.90;7.15;;;;;;;6.43;100.00;92749.03;5088694;28;20056;-84
2022/01/08 10:10:56;;;;;;;18.33;9.55;;;;;;;6.52;100.00;92732.53;5088607;28;20097;-84
2022/01/08 10:13:25;;;;;;;20.02;10.48;;;;;;;6.73;100.00;92746.88;5088387;28;20048;-84
2022/01/08 10:18:38;;;;;;;18.75;11.18;;;;;;;6.85;97.90;92743.72;5088216;28;20422;-84
2022/01/08 10:21:18;;;;;;;16.88;10.77;;;;;;;6.88;99.07;92744.09;5088268;28;20044;-83
2022/01/08 10:23:46;;;;;;;73.18;30.05;;;;;;;6.81;98.78;92713.47;5088348;28;20102;-84
2022/01/08 10:26:16;;;;;;;29.30;18.20;;;;;;;6.92;98.46;92716.41;5088092;28;20601;-84
2022/01/08 10:28:46;;;;;;;30.88;18.83;;;;;;;7.04;98.10;92725.03;5087994;28;20097;-84
2022/01/08 10:31:16;;;;;;;25.55;14.23;;;;;;;7.08;98.18;92725.41;5088121;28;20090;-84
2022/01/08 10:33:45;;;;;;;17.70;11.75;;;;;;;7.09;97.26;92715.00;5087827;28;20098;-84
2022/01/08 10:36:12;;;;;;;23.45;13.70;;;;;;;7.18;96.72;92710.44;5087743;28;20051;-84
2022/01/08 10:38:43;;;;;;;46.50;28.77;;;;;;;7.20;96.93;92705.16;5087742;28;20069;-84
2022/01/08 10:41:16;;;;;;;42.03;24.05;;;;;;;7.28;97.01;92706.69;5087679;28;20509;-84
2022/01/08 10:43:44;;;;;;;26.23;17.13;;;;;;;7.22;96.76;92701.41;5087844;28;20147;-84
2022/01/08 10:46:16;;;;;;;46.70;25.63;;;;;;;7.30;96.58;92705.50;5087687;28;20063;-84
2022/01/08 10:48:47;;;;;;;37.28;22.52;;;;;;;7.34;95.90;92706.69;5087777;28;20055;-85
2022/01/08 10:51:17;;;;;;;21.40;13.05;;;;;;;7.35;95.39;92700.59;5090892;28;20044;-84
2022/01/08 10:54:17;;;;;;;22.40;12.73;;;;;;;7.37;96.61;92684.25;5087763;28;20053;-85
2022/01/08 10:56:46;;;;;;;20.20;12.55;;;;;;;7.45;96.21;92684.81;5087600;28;20084;-84
2022/01/08 10:59:15;;;;;;;30.83;15.32;;;;;;;7.48;95.88;92681.88;5087665;28;20057;-84
2022/01/08 11:01:51;;;;;;;24.30;13.25;;;;;;;7.69;95.09;92685.09;5087234;28;20102;-85
2022/01/08 11:04:20;;;;;;;26.83;15.75;;;;;;;7.71;95.05;92678.03;5087073;28;20060;-84
2022/01/08 11:06:52;;;;;;;22.15;12.98;;;;;;;7.86;94.89;92687.97;5087143;28;20407;-85
2022/01/08 11:09:20;;;;;;;29.20;17.05;;;;;;;7.94;95.16;92686.94;5087292;28;20052;-85
2022/01/08 11:11:49;;;;;;;22.63;15.15;;;;;;;7.94;94.18;92679.28;5087096;28;20479;-85
2022/01/08 11:14:34;;;;;;;21.83;14.52;;;;;;;7.97;92.94;92685.75;5085250;28;20041;-84
2022/01/08 11:17:01;;;;;;;19.23;11.82;;;;;;;7.90;90.21;92667.88;5074625;28;20048;-85
2022/01/08 11:19:30;;;;;;;24.13;15.23;;;;;;;7.88;90.46;92667.31;5073734;28;20079;-85
2022/01/08 11:21:57;;;;;;;20.73;12.68;;;;;;;7.98;92.34;92670.19;5073397;28;20053;-85
2022/01/08 11:24:26;;;;;;;25.27;12.95;;;;;;;7.95;91.55;92649.34;5073226;28;20110;-85
2022/01/08 11:26:56;;;;;;;16.98;10.07;;;;;;;7.94;90.62;92668.25;5073840;28;20048;-85
2022/01/08 11:29:29;;;;;;;15.35;8.50;;;;;;;7.68;90.90;92632.41;5073186;28;20528;-85
2022/01/08 11:32:00;;;;;;;13.50;9.40;;;;;;;8.01;93.07;92659.53;5073237;28;20048;-85
2022/01/08 11:34:30;;;;;;;19.80;11.20;;;;;;;8.14;93.50;92655.31;5073404;28;20045;-85
2022/01/08 11:36:58;;;;;;;18.92;11.40;;;;;;;8.24;93.50;92647.97;5073149;28;20127;-85
2022/01/08 11:39:28;;;;;;;15.50;9.25;;;;;;;8.37;92.05;92652.19;5073099;28;20059;-85
2022/01/08 11:41:57;;;;;;;14.90;9.85;;;;;;;8.24;91.02;92636.97;5072969;28;20044;-85
2022/01/08 11:44:26;;;;;;;15.70;9.82;;;;;;;8.45;91.66;92643.47;5072983;28;20054;-85